Time;durP1;ratioP1;P1;durP2;ratioP2;P2;SDS_P1;SDS_P2;PMS_P1;PMS_P2;Temp;Humidity;BMP_temperature;BMP_pressure;BME280_temperature;BME280_humidity;BME280_pressure;Samples;Min_cycle;Max_cycle;Signal;HPM_P1;HPM_P2
2023/01/24 00:00:27;;;;;;;0.00;0.00;;;4.10;83.60;;;;;;4992333;28;20034;-68
2023/01/24 00:02:53;;;;;;;0.00;0.00;;;4.10;83.70;;;;;;4989667;28;20046;-68
2023/01/24 00:05:19;;;;;;;0.00;0.00;;;4.10;83.70;;;;;;4993778;28;20038;-69
2023/01/24 00:07:45;;;;;;;0.00;0.00;;;4.10;83.70;;;;;;4990994;28;20046;-68
2023/01/24 00:10:11;;;;;;;0.05;0.05;;;4.10;83.70;;;;;;4993375;28;20042;-69
2023/01/24 00:12:37;;;;;;;0.00;0.00;;;4.10;83.70;;;;;;4993730;28;20129;-67
2023/01/24 00:15:03;;;;;;;0.03;0.03;;;4.10;83.80;;;;;;4992753;28;20138;-69
2023/01/24 00:17:28;;;;;;;0.00;0.00;;;4.10;83.90;;;;;;4992719;28;20108;-68
2023/01/24 00:19:54;;;;;;;0.00;0.00;;;4.20;83.90;;;;;;4993728;28;20527;-69
2023/01/24 00:22:20;;;;;;;0.00;0.00;;;4.20;83.90;;;;;;4994293;28;20038;-69
2023/01/24 00:24:46;;;;;;;0.00;0.00;;;4.20;83.90;;;;;;4991821;28;20050;-68
2023/01/24 00:27:11;;;;;;;0.10;0.10;;;4.20;83.90;;;;;;4993646;28;20133;-68
2023/01/24 00:29:37;;;;;;;0.00;0.00;;;4.10;83.80;;;;;;4990664;28;20141;-68
2023/01/24 00:32:02;;;;;;;0.13;0.10;;;4.10;83.90;;;;;;4992133;28;20042;-69
2023/01/24 00:34:28;;;;;;;0.00;0.00;;;4.10;83.90;;;;;;4993536;28;20038;-68
2023/01/24 00:36:53;;;;;;;0.30;0.30;;;4.20;83.90;;;;;;4988419;28;20038;-68
2023/01/24 00:39:19;;;;;;;0.00;0.00;;;4.10;83.90;;;;;;4992740;28;20137;-68
2023/01/24 00:41:45;;;;;;;0.00;0.00;;;4.10;83.90;;;;;;4993470;28;20518;-69
2023/01/24 00:44:11;;;;;;;0.00;0.00;;;4.10;84.00;;;;;;4992371;28;20046;-68
2023/01/24 00:46:36;;;;;;;0.00;0.00;;;4.10;84.00;;;;;;4991145;28;20061;-68
2023/01/24 00:49:02;;;;;;;0.00;0.00;;;4.10;84.00;;;;;;4991107;28;20116;-68
2023/01/24 00:51:28;;;;;;;0.08;0.08;;;4.10;84.00;;;;;;4993198;28;20057;-69
2023/01/24 00:53:53;;;;;;;0.00;0.00;;;4.10;84.00;;;;;;4974602;28;20049;-68
2023/01/24 00:56:19;;;;;;;0.00;0.00;;;4.10;84.00;;;;;;4991117;28;20121;-68
2023/01/24 00:58:45;;;;;;;0.00;0.00;;;4.10;83.80;;;;;;4990460;28;20518;-68
2023/01/24 01:01:10;;;;;;;0.10;0.10;;;4.10;83.80;;;;;;4991890;28;20467;-68
2023/01/24 01:03:36;;;;;;;0.00;0.00;;;4.10;83.80;;;;;;4992370;28;20054;-68
2023/01/24 01:06:04;;;;;;;0.00;0.00;;;4.00;83.70;;;;;;4984759;28;20498;-68
2023/01/24 01:08:30;;;;;;;0.00;0.00;;;4.00;83.70;;;;;;4975138;28;20047;-68
2023/01/24 01:10:56;;;;;;;0.30;0.30;;;4.00;83.80;;;;;;4974341;28;20055;-68
2023/01/24 01:13:21;;;;;;;0.00;0.00;;;4.00;83.80;;;;;;4988601;28;20404;-68
2023/01/24 01:15:47;;;;;;;0.40;0.40;;;4.00;83.90;;;;;;4987866;28;20039;-68
2023/01/24 01:18:12;;;;;;;0.00;0.00;;;4.10;84.00;;;;;;4979385;28;20046;-68
2023/01/24 01:20:38;;;;;;;0.00;0.00;;;4.10;84.00;;;;;;4993383;28;20062;-69
2023/01/24 01:23:04;;;;;;;0.43;0.43;;;4.10;84.00;;;;;;4992281;28;20129;-68
2023/01/24 01:25:30;;;;;;;0.00;0.00;;;4.10;84.00;;;;;;4989967;28;20047;-69
2023/01/24 01:27:55;;;;;;;0.00;0.00;;;4.10;84.10;;;;;;4974348;28;20035;-68
2023/01/24 01:30:21;;;;;;;0.00;0.00;;;4.20;84.10;;;;;;4972690;28;20097;-68
2023/01/24 01:32:47;;;;;;;0.00;0.00;;;4.20;84.10;;;;;;4956095;28;20082;-69
2023/01/24 01:35:12;;;;;;;0.00;0.00;;;4.20;84.10;;;;;;4972998;28;20102;-68
2023/01/24 01:37:38;;;;;;;0.10;0.10;;;4.20;84.20;;;;;;4990998;28;20138;-68
2023/01/24 01:40:04;;;;;;;0.35;0.35;;;4.20;84.20;;;;;;4974112;28;20078;-69
2023/01/24 01:42:51;;;;;;;0.00;0.00;;;4.20;84.20;;;;;;4973428;28;20055;-68
2023/01/24 01:45:29;;;;;;;0.30;0.30;;;4.30;84.20;;;;;;4974299;28;20125;-69
2023/01/24 01:47:55;;;;;;;0.00;0.00;;;4.20;84.00;;;;;;4992566;28;20042;-68
2023/01/24 01:50:29;;;;;;;0.00;0.00;;;4.20;84.10;;;;;;4979521;28;20451;-69
2023/01/24 01:52:56;;;;;;;0.00;0.00;;;4.20;84.20;;;;;;4973181;28;20050;-69
2023/01/24 01:55:28;;;;;;;0.05;0.05;;;4.10;84.00;;;;;;4990298;28;20042;-69
2023/01/24 01:57:54;;;;;;;0.20;0.20;;;4.10;84.10;;;;;;4977757;28;20066;-68
2023/01/24 02:00:24;;;;;;;0.00;0.00;;;4.10;84.20;;;;;;4972610;28;20047;-68
2023/01/24 02:02:55;;;;;;;0.00;0.00;;;4.10;84.40;;;;;;4972586;28;20039;-68
2023/01/24 02:05:24;;;;;;;0.00;0.00;;;4.10;84.40;;;;;;4973309;28;20061;-68
2023/01/24 02:07:59;;;;;;;0.00;0.00;;;4.10;84.40;;;;;;4965497;28;20050;-68
2023/01/24 02:11:37;;;;;;;0.00;0.00;;;4.10;84.50;;;;;;4989529;28;20054;-69
2023/01/24 02:13:12;;;;;;;2.45;0.85;;;4.20;84.50;;;;;;4991881;28;20104;-69
2023/01/24 02:18:22;;;;;;;0.00;0.00;;;4.20;84.40;;;;;;4987136;28;20050;-68
2023/01/24 02:20:48;;;;;;;0.00;0.00;;;4.20;84.40;;;;;;4991010;28;20065;-68
2023/01/24 02:23:33;;;;;;;0.00;0.00;;;4.10;84.40;;;;;;4990791;28;20053;-68
2023/01/24 02:26:08;;;;;;;0.00;0.00;;;4.10;84.20;;;;;;4990039;28;20062;-68
2023/01/24 02:28:35;;;;;;;0.00;0.00;;;4.10;84.30;;;;;;4972518;28;20089;-68
2023/01/24 02:31:01;;;;;;;0.00;0.00;;;4.10;84.30;;;;;;4972299;28;20039;-69
2023/01/24 02:33:27;;;;;;;0.00;0.00;;;4.10;84.30;;;;;;4972328;28;20051;-69
2023/01/24 02:36:15;;;;;;;0.00;0.00;;;4.10;84.30;;;;;;4987439;28;20142;-69
2023/01/24 02:38:44;;;;;;;0.10;0.10;;;4.10;84.30;;;;;;4972622;28;20724;-68
2023/01/24 02:41:11;;;;;;;0.32;0.32;;;4.10;84.20;;;;;;4983790;28;20043;-68
2023/01/24 02:43:44;;;;;;;0.00;0.00;;;4.20;84.30;;;;;;4971092;28;20415;-68
2023/01/24 02:46:10;;;;;;;0.00;0.00;;;4.10;84.10;;;;;;4979189;28;20104;-68
2023/01/24 02:48:35;;;;;;;0.10;0.10;;;4.10;84.20;;;;;;4975091;28;20044;-69
2023/01/24 02:53:45;;;;;;;0.00;0.00;;;4.20;84.30;;;;;;4971342;28;20059;-69
2023/01/24 02:58:55;;;;;;;0.15;0.15;;;4.20;84.40;;;;;;4989505;28;20389;-69
2023/01/24 03:01:22;;;;;;;0.00;0.00;;;4.20;84.30;;;;;;4970657;28;20105;-69
2023/01/24 03:03:49;;;;;;;0.00;0.00;;;4.20;84.30;;;;;;4971980;28;20050;-69
2023/01/24 03:06:16;;;;;;;0.08;0.08;;;4.20;84.30;;;;;;4989214;28;20046;-68
2023/01/24 03:08:43;;;;;;;0.00;0.00;;;4.20;84.30;;;;;;4985037;28;20054;-69
2023/01/24 03:11:10;;;;;;;0.00;0.00;;;4.20;84.30;;;;;;4982782;28;20069;-69
2023/01/24 03:35:33;;;;;;;0.00;0.00;;;4.30;84.10;;;;;;4989058;28;20129;-68
2023/01/24 03:40:44;;;;;;;1.33;0.73;;;4.30;84.10;;;;;;4981165;28;20042;-69
2023/01/24 03:43:10;;;;;;;0.00;0.00;;;4.30;84.10;;;;;;4988077;28;20097;-69
2023/01/24 03:45:38;;;;;;;0.00;0.00;;;4.30;84.00;;;;;;4989695;28;20049;-69
2023/01/24 03:48:09;;;;;;;0.00;0.00;;;4.30;84.00;;;;;;4984648;28;20495;-68
2023/01/24 03:53:27;;;;;;;0.00;0.00;;;4.20;83.90;;;;;;4970135;28;20051;-69
2023/01/24 03:55:55;;;;;;;0.00;0.00;;;4.30;83.90;;;;;;4981003;28;20046;-69
2023/01/24 03:58:21;;;;;;;0.00;0.00;;;4.30;83.90;;;;;;4989926;28;20100;-69
2023/01/24 04:00:47;;;;;;;0.00;0.00;;;4.30;83.90;;;;;;4981816;28;20047;-69
2023/01/24 04:03:12;;;;;;;0.00;0.00;;;4.30;83.90;;;;;;4970288;28;20065;-69
2023/01/24 04:05:38;;;;;;;0.00;0.00;;;4.20;83.90;;;;;;4968722;28;20054;-69
2023/01/24 04:08:04;;;;;;;0.00;0.00;;;4.20;83.60;;;;;;4988029;28;20051;-69
2023/01/24 04:10:30;;;;;;;0.00;0.00;;;4.20;83.90;;;;;;4987468;28;20057;-69
2023/01/24 04:12:56;;;;;;;0.30;0.30;;;4.20;83.80;;;;;;4989590;28;20077;-69
2023/01/24 04:15:28;;;;;;;0.00;0.00;;;4.20;83.70;;;;;;4992629;28;20527;-69
2023/01/24 04:17:58;;;;;;;;;;;4.20;83.80;;;;;;4989941;28;20050;-69
2023/01/24 04:20:25;;;;;;;0.00;0.00;;;4.20;83.70;;;;;;4972604;28;19922;-69
2023/01/24 04:22:51;;;;;;;0.00;0.00;;;4.20;83.70;;;;;;4970239;28;20074;-68
2023/01/24 04:25:16;;;;;;;0.00;0.00;;;4.10;83.50;;;;;;4969640;28;20043;-69
2023/01/24 04:27:42;;;;;;;0.00;0.00;;;4.20;83.40;;;;;;4952973;28;20403;-69
2023/01/24 04:30:10;;;;;;;0.00;0.00;;;4.10;83.30;;;;;;4969788;28;20105;-69
2023/01/24 04:32:36;;;;;;;0.00;0.00;;;4.10;83.10;;;;;;4970040;28;20070;-69
2023/01/24 04:35:05;;;;;;;0.00;0.00;;;4.10;83.00;;;;;;4970150;28;20093;-69
2023/01/24 04:37:32;;;;;;;0.00;0.00;;;4.10;83.10;;;;;;4980765;28;20085;-69
2023/01/24 04:39:58;;;;;;;0.00;0.00;;;4.10;83.20;;;;;;4980973;28;20047;-69
2023/01/24 04:42:23;;;;;;;0.00;0.00;;;4.20;83.30;;;;;;4973639;28;20588;-69
2023/01/24 04:44:49;;;;;;;0.00;0.00;;;4.20;83.30;;;;;;4973736;28;20046;-69
2023/01/24 04:47:15;;;;;;;0.00;0.00;;;4.10;83.40;;;;;;4979059;28;20138;-69
2023/01/24 04:49:41;;;;;;;0.00;0.00;;;4.20;83.30;;;;;;4986454;28;20045;-70
2023/01/24 04:52:11;;;;;;;1.95;0.82;;;4.10;83.20;;;;;;4975601;28;20070;-69
2023/01/24 04:54:38;;;;;;;0.00;0.00;;;4.10;83.10;;;;;;4989834;28;20150;-69
2023/01/24 04:57:04;;;;;;;0.00;0.00;;;4.10;83.20;;;;;;4974816;28;20082;-69
2023/01/24 04:59:29;;;;;;;0.00;0.00;;;4.10;83.20;;;;;;4973287;28;20078;-69
2023/01/24 05:01:55;;;;;;;0.00;0.00;;;4.10;83.30;;;;;;4973805;28;20103;-68
2023/01/24 05:04:20;;;;;;;0.00;0.00;;;4.10;83.30;;;;;;4969311;28;20073;-72
2023/01/24 05:06:46;;;;;;;0.00;0.00;;;4.10;83.40;;;;;;4987858;28;20054;-68
2023/01/24 05:09:12;;;;;;;0.00;0.00;;;4.10;83.40;;;;;;4989344;28;20089;-70
2023/01/24 05:11:37;;;;;;;0.00;0.00;;;4.10;83.40;;;;;;4988167;28;20066;-70
2023/01/24 05:14:03;;;;;;;0.00;0.00;;;4.10;83.40;;;;;;4990495;28;20463;-70
2023/01/24 05:16:29;;;;;;;0.00;0.00;;;4.10;83.40;;;;;;4981683;28;20893;-70
2023/01/24 05:18:55;;;;;;;0.00;0.00;;;4.10;83.10;;;;;;4990567;28;20472;-69
2023/01/24 05:21:21;;;;;;;0.00;0.00;;;4.10;83.10;;;;;;4960628;28;20042;-69
2023/01/24 05:23:51;;;;;;;0.00;0.00;;;4.20;83.60;;;;;;4986823;28;20144;-70
2023/01/24 05:26:18;;;;;;;0.00;0.00;;;4.30;83.50;;;;;;4989174;28;20054;-69
2023/01/24 05:28:44;;;;;;;0.00;0.00;;;4.30;83.40;;;;;;4987957;28;20062;-69
2023/01/24 05:31:09;;;;;;;0.00;0.00;;;4.30;83.30;;;;;;4990037;28;20092;-69
2023/01/24 05:33:35;;;;;;;0.00;0.00;;;4.20;83.10;;;;;;4988810;28;20109;-69
2023/01/24 05:36:07;;;;;;;0.00;0.00;;;4.20;83.00;;;;;;4988301;28;20554;-70
2023/01/24 05:38:33;;;;;;;;;;;4.20;83.00;;;;;;4989465;28;20113;-69
2023/01/24 05:41:07;;;;;;;0.20;0.20;;;4.20;82.90;;;;;;4990391;28;20298;-70
2023/01/24 05:43:34;;;;;;;0.00;0.00;;;4.10;82.80;;;;;;4988504;28;20577;-69
2023/01/24 05:46:01;;;;;;;0.00;0.00;;;4.10;82.80;;;;;;4974407;28;20101;-70
2023/01/24 05:48:27;;;;;;;0.00;0.00;;;4.10;83.00;;;;;;4970656;28;20059;-69
2023/01/24 05:50:57;;;;;;;0.50;0.50;;;4.10;83.10;;;;;;4976781;28;20073;-70
2023/01/24 05:53:23;;;;;;;0.00;0.00;;;4.10;83.20;;;;;;4980377;28;20070;-69
2023/01/24 05:55:55;;;;;;;0.05;0.05;;;4.00;83.20;;;;;;4968609;28;20931;-69
2023/01/24 05:58:20;;;;;;;0.00;0.00;;;4.00;83.30;;;;;;4989153;28;20062;-69
2023/01/24 06:00:46;;;;;;;0.00;0.00;;;4.00;83.40;;;;;;4977813;28;20046;-69
2023/01/24 06:03:11;;;;;;;0.17;0.17;;;4.00;83.30;;;;;;4985099;28;20042;-69
2023/01/24 06:05:37;;;;;;;0.00;0.00;;;4.00;83.40;;;;;;4986821;28;20054;-69
2023/01/24 06:08:02;;;;;;;0.00;0.00;;;4.10;83.50;;;;;;4986928;28;20140;-69
2023/01/24 06:10:28;;;;;;;0.00;0.00;;;4.00;83.50;;;;;;4976535;28;20050;-69
2023/01/24 06:12:54;;;;;;;0.00;0.00;;;4.10;83.60;;;;;;4989514;28;20050;-69
2023/01/24 06:15:19;;;;;;;0.00;0.00;;;4.00;83.50;;;;;;4989503;28;20054;-69
2023/01/24 06:17:45;;;;;;;0.00;0.00;;;3.90;83.40;;;;;;5004300;28;20058;-70
2023/01/24 06:20:12;;;;;;;0.00;0.00;;;3.90;83.50;;;;;;4990354;28;20054;-70
2023/01/24 06:22:50;;;;;;;0.00;0.00;;;3.90;83.40;;;;;;4997925;28;20069;-70
2023/01/24 06:25:22;;;;;;;0.00;0.00;;;3.90;83.30;;;;;;4993305;28;20054;-69
2023/01/24 06:27:49;;;;;;;0.00;0.00;;;3.80;83.30;;;;;;4988157;28;20060;-69
2023/01/24 06:30:15;;;;;;;0.00;0.00;;;3.90;83.40;;;;;;4988552;28;20693;-70
2023/01/24 06:33:11;;;;;;;0.00;0.00;;;3.80;83.20;;;;;;4990965;28;20121;-70
2023/01/24 06:35:43;;;;;;;0.00;0.00;;;3.80;83.30;;;;;;4982151;28;20439;-70
2023/01/24 06:38:35;;;;;;;0.00;0.00;;;3.80;83.40;;;;;;4988109;28;20125;-69
2023/01/24 06:41:01;;;;;;;0.00;0.00;;;3.80;83.50;;;;;;4970143;28;20499;-68
2023/01/24 06:43:27;;;;;;;0.00;0.00;;;3.90;83.60;;;;;;4969972;28;20077;-68
2023/01/24 06:45:54;;;;;;;0.00;0.00;;;3.80;83.60;;;;;;4981220;28;20143;-69
2023/01/24 06:48:20;;;;;;;0.00;0.00;;;3.80;83.70;;;;;;4954044;28;20069;-69
2023/01/24 06:50:46;;;;;;;0.75;0.75;;;3.80;83.70;;;;;;4976820;28;20042;-68
2023/01/24 06:53:14;;;;;;;0.00;0.00;;;3.90;83.80;;;;;;4979324;28;20428;-69
2023/01/24 06:55:44;;;;;;;0.30;0.30;;;3.80;83.70;;;;;;4986383;28;20042;-69
2023/01/24 06:58:10;;;;;;;0.00;0.00;;;3.80;83.70;;;;;;4957111;28;20104;-69
2023/01/24 07:00:35;;;;;;;0.00;0.00;;;3.80;83.70;;;;;;4972492;28;20051;-69
2023/01/24 07:03:08;;;;;;;0.00;0.00;;;3.70;83.70;;;;;;4989847;28;20085;-68
2023/01/24 07:05:36;;;;;;;0.00;0.00;;;3.70;83.70;;;;;;4975594;28;20522;-69
2023/01/24 07:08:02;;;;;;;0.00;0.00;;;3.70;83.70;;;;;;4987724;28;20562;-69
2023/01/24 07:10:28;;;;;;;0.00;0.00;;;3.70;83.70;;;;;;4989636;28;20157;-70
2023/01/24 07:12:54;;;;;;;0.22;0.22;;;3.70;83.70;;;;;;4987857;28;20410;-70
2023/01/24 07:15:20;;;;;;;0.00;0.00;;;3.70;84.00;;;;;;4980540;28;20540;-70
2023/01/24 07:17:46;;;;;;;0.00;0.00;;;5.00;88.80;;;;;;4973331;28;20210;-70
2023/01/24 07:20:13;;;;;;;0.00;0.00;;;5.40;87.40;;;;;;4973912;28;20050;-70
2023/01/24 07:22:39;;;;;;;0.00;0.00;;;5.20;86.00;;;;;;4985776;28;20054;-70
2023/01/24 07:25:14;;;;;;;0.20;0.20;;;5.10;85.30;;;;;;4978270;28;20050;-70
2023/01/24 07:27:43;;;;;;;0.00;0.00;;;4.90;84.70;;;;;;4989864;28;20407;-70
2023/01/24 07:30:11;;;;;;;0.00;0.00;;;4.70;84.20;;;;;;4978740;28;20530;-70
2023/01/24 07:32:37;;;;;;;0.10;0.10;;;4.60;84.00;;;;;;4969371;28;20042;-69
2023/01/24 07:35:04;;;;;;;0.00;0.00;;;4.60;83.90;;;;;;4979393;28;20446;-69
2023/01/24 07:37:30;;;;;;;0.32;0.32;;;4.50;83.80;;;;;;4979856;28;20053;-70
2023/01/24 07:39:55;;;;;;;0.00;0.00;;;4.40;83.50;;;;;;4975411;28;20499;-70
2023/01/24 07:42:21;;;;;;;0.00;0.00;;;4.30;83.50;;;;;;4976270;28;20105;-70
2023/01/24 07:44:47;;;;;;;0.10;0.10;;;4.30;83.50;;;;;;4970701;28;20046;-69
2023/01/24 07:47:12;;;;;;;0.10;0.10;;;4.20;83.40;;;;;;4978496;28;20529;-70
2023/01/24 07:49:38;;;;;;;0.00;0.00;;;4.10;83.30;;;;;;4969450;28;20053;-70
2023/01/24 07:52:03;;;;;;;0.75;0.75;;;4.00;83.40;;;;;;4974574;28;20097;-67
2023/01/24 07:54:29;;;;;;;0.00;0.00;;;4.00;83.50;;;;;;4971686;28;20449;-67
2023/01/24 07:56:55;;;;;;;0.32;0.32;;;4.00;83.60;;;;;;4985131;28;20427;-68
2023/01/24 07:59:20;;;;;;;1.35;0.55;;;4.00;83.60;;;;;;4987076;28;20042;-68
2023/01/24 08:01:46;;;;;;;0.00;0.00;;;3.90;83.60;;;;;;4981041;28;20046;-68
2023/01/24 08:04:12;;;;;;;0.00;0.00;;;3.90;83.60;;;;;;4973062;28;20035;-68
2023/01/24 08:07:16;;;;;;;0.00;0.00;;;3.90;83.70;;;;;;4992564;28;20057;-68
2023/01/24 08:09:24;;;;;;;0.00;0.00;;;3.80;83.70;;;;;;4989832;28;20062;-68
2023/01/24 08:11:50;;;;;;;0.00;0.00;;;3.70;83.70;;;;;;4985088;28;20054;-67
2023/01/24 08:14:15;;;;;;;0.00;0.00;;;3.70;83.80;;;;;;4975219;28;20116;-68
2023/01/24 08:16:41;;;;;;;0.32;0.32;;;3.70;83.80;;;;;;4991003;28;20112;-68
2023/01/24 08:19:06;;;;;;;0.00;0.00;;;3.70;83.80;;;;;;4992694;28;20478;-68
2023/01/24 08:21:32;;;;;;;0.00;0.00;;;3.70;83.90;;;;;;4985441;28;20116;-69
2023/01/24 08:23:57;;;;;;;0.00;0.00;;;3.70;83.80;;;;;;4985626;28;20081;-69
2023/01/24 08:26:23;;;;;;;0.13;0.13;;;3.70;83.90;;;;;;4992044;28;20060;-69
2023/01/24 08:28:48;;;;;;;0.03;0.03;;;3.70;83.90;;;;;;4985640;28;20051;-69
2023/01/24 08:31:14;;;;;;;3.10;2.00;;;3.70;83.90;;;;;;4992007;28;20054;-69
2023/01/24 08:33:40;;;;;;;0.00;0.00;;;3.60;83.90;;;;;;4968822;28;20081;-69
2023/01/24 08:36:06;;;;;;;0.20;0.20;;;3.60;83.80;;;;;;4973527;28;20103;-69
2023/01/24 08:38:32;;;;;;;0.00;0.00;;;3.60;83.90;;;;;;4986598;28;20105;-69
2023/01/24 08:40:57;;;;;;;0.00;0.00;;;3.60;83.90;;;;;;4992098;28;20085;-69
2023/01/24 08:43:23;;;;;;;0.10;0.10;;;3.60;83.80;;;;;;4986309;28;20376;-69
2023/01/24 08:45:55;;;;;;;0.08;0.08;;;3.60;83.90;;;;;;4992044;28;20053;-69
2023/01/24 08:48:20;;;;;;;0.10;0.10;;;3.60;84.00;;;;;;4992731;28;20050;-69
2023/01/24 08:50:46;;;;;;;0.00;0.00;;;3.60;84.00;;;;;;4988251;28;20084;-70
2023/01/24 08:53:11;;;;;;;0.00;0.00;;;3.70;84.10;;;;;;4992482;28;20434;-70
2023/01/24 08:55:37;;;;;;;0.20;0.20;;;3.70;84.10;;;;;;4978039;28;20055;-69
2023/01/24 08:58:04;;;;;;;0.00;0.00;;;3.70;84.20;;;;;;4991555;28;20077;-69
2023/01/24 09:00:31;;;;;;;0.00;0.00;;;3.70;84.20;;;;;;4990339;28;20070;-69
2023/01/24 09:03:00;;;;;;;0.00;0.00;;;3.70;84.20;;;;;;4992361;28;20054;-69
2023/01/24 09:05:30;;;;;;;0.00;0.00;;;3.70;84.30;;;;;;4991924;28;20062;-69
2023/01/24 09:07:56;;;;;;;0.00;0.00;;;3.70;84.30;;;;;;4992467;28;20042;-69
2023/01/24 09:10:21;;;;;;;0.00;0.00;;;3.70;84.10;;;;;;4989889;28;20137;-69
2023/01/24 09:12:47;;;;;;;0.08;0.08;;;3.70;84.20;;;;;;4992361;28;20141;-69
2023/01/24 09:15:12;;;;;;;0.25;0.25;;;3.80;84.20;;;;;;4992064;28;20058;-69
2023/01/24 09:17:39;;;;;;;0.03;0.03;;;3.70;84.20;;;;;;4992356;28;20108;-69
2023/01/24 09:20:06;;;;;;;0.00;0.00;;;3.80;84.20;;;;;;4991657;28;20066;-69
2023/01/24 09:22:32;;;;;;;0.00;0.00;;;3.70;84.00;;;;;;4985789;28;20075;-69
2023/01/24 09:24:58;;;;;;;0.00;0.00;;;3.80;84.10;;;;;;4971999;28;21045;-69
2023/01/24 09:27:24;;;;;;;0.20;0.20;;;3.70;84.10;;;;;;4972599;28;20102;-69
2023/01/24 09:29:49;;;;;;;0.98;0.93;;;3.70;84.20;;;;;;4979973;28;22005;-69
2023/01/24 09:32:16;;;;;;;0.00;0.00;;;3.70;84.00;;;;;;4999634;28;20073;-69
2023/01/24 09:34:46;;;;;;;0.00;0.00;;;3.70;84.10;;;;;;5010900;28;20471;-69
2023/01/24 09:37:15;;;;;;;0.00;0.00;;;3.70;84.10;;;;;;4990634;28;20548;-69
2023/01/24 09:39:41;;;;;;;0.30;0.30;;;3.70;84.10;;;;;;4990978;28;20077;-69
2023/01/24 09:42:22;;;;;;;0.00;0.00;;;3.70;84.10;;;;;;4988404;28;20503;-70
2023/01/24 09:45:16;;;;;;;0.55;0.50;;;3.80;84.20;;;;;;4972158;28;20050;-70
2023/01/24 09:47:50;;;;;;;0.00;0.00;;;3.80;84.20;;;;;;4972752;28;20079;-70
2023/01/24 09:50:16;;;;;;;0.00;0.00;;;3.80;84.20;;;;;;4965689;28;20066;-70
2023/01/24 09:52:49;;;;;;;0.00;0.00;;;3.80;84.20;;;;;;5006380;28;20068;-70
2023/01/24 09:55:19;;;;;;;0.00;0.00;;;3.90;84.00;;;;;;4982234;28;20066;-69
2023/01/24 09:57:50;;;;;;;0.20;0.20;;;3.90;84.00;;;;;;4970753;28;20113;-70
2023/01/24 10:00:26;;;;;;;0.00;0.00;;;3.80;83.90;;;;;;4983421;28;20042;-70
2023/01/24 10:02:55;;;;;;;0.13;0.13;;;3.90;83.90;;;;;;4991154;28;20525;-70
2023/01/24 10:05:26;;;;;;;0.17;0.17;;;3.90;83.70;;;;;;4990924;28;20515;-70
2023/01/24 10:08:02;;;;;;;0.00;0.00;;;3.90;83.90;;;;;;5005018;28;20046;-70
2023/01/24 10:11:00;;;;;;;0.00;0.00;;;3.90;83.90;;;;;;4990505;28;20745;-70
2023/01/24 10:13:51;;;;;;;0.00;0.00;;;3.90;83.80;;;;;;4989849;28;20085;-70
2023/01/24 10:16:39;;;;;;;0.05;0.05;;;3.90;83.70;;;;;;4989700;28;20062;-70
2023/01/24 10:19:13;;;;;;;0.10;0.10;;;3.90;83.80;;;;;;4973250;28;20047;-69
2023/01/24 10:21:47;;;;;;;0.00;0.00;;;3.90;83.90;;;;;;4983389;28;20582;-69
2023/01/24 10:24:19;;;;;;;0.03;0.03;;;3.90;83.80;;;;;;4989380;28;20414;-69
2023/01/24 10:26:49;;;;;;;;;;;3.90;84.00;;;;;;4969972;28;20141;-69
2023/01/24 10:29:19;;;;;;;0.00;0.00;;;3.90;84.00;;;;;;4976947;28;19976;-69
2023/01/24 10:32:03;;;;;;;0.00;0.00;;;4.00;83.90;;;;;;4987660;28;20059;-70
2023/01/24 10:34:39;;;;;;;0.00;0.00;;;3.90;84.00;;;;;;4981932;28;20038;-68
2023/01/24 10:37:27;;;;;;;0.40;0.40;;;4.00;84.00;;;;;;4986865;28;20054;-70
2023/01/24 10:39:52;;;;;;;0.00;0.00;;;4.00;84.00;;;;;;4986748;28;20097;-69
2023/01/24 10:42:22;;;;;;;0.47;0.47;;;4.00;84.00;;;;;;4998495;28;20404;-70
2023/01/24 10:44:49;;;;;;;0.00;0.00;;;4.00;84.00;;;;;;4982862;28;20054;-69
2023/01/24 10:47:59;;;;;;;0.00;0.00;;;4.00;83.90;;;;;;4990082;28;20094;-69
2023/01/24 10:50:34;;;;;;;0.00;0.00;;;4.00;83.80;;;;;;4971526;28;20062;-70
2023/01/24 10:53:23;;;;;;;0.10;0.10;;;3.90;83.60;;;;;;4970959;28;20548;-70
2023/01/24 10:55:49;;;;;;;0.03;0.03;;;3.90;83.60;;;;;;4983436;28;20050;-70
2023/01/24 10:58:40;;;;;;;0.00;0.00;;;3.90;83.70;;;;;;4990109;28;20050;-70
2023/01/24 11:01:33;;;;;;;0.00;0.00;;;3.90;83.80;;;;;;4988309;28;20054;-70
2023/01/24 11:04:14;;;;;;;0.00;0.00;;;3.90;83.80;;;;;;4990362;28;20135;-71
2023/01/24 11:06:39;;;;;;;0.00;0.00;;;3.90;83.80;;;;;;4978093;28;20129;-70
2023/01/24 11:09:11;;;;;;;0.05;0.05;;;3.90;83.70;;;;;;4974341;28;20042;-69
2023/01/24 11:11:42;;;;;;;0.00;0.00;;;3.90;83.80;;;;;;4981180;28;20515;-69
2023/01/24 11:14:13;;;;;;;0.45;0.45;;;3.90;83.80;;;;;;4974574;28;20152;-69
2023/01/24 11:16:42;;;;;;;0.00;0.00;;;3.90;83.80;;;;;;4969329;28;20125;-70
2023/01/24 11:19:30;;;;;;;0.10;0.10;;;3.90;83.80;;;;;;4969367;28;20043;-70
2023/01/24 11:21:59;;;;;;;0.10;0.10;;;3.90;83.70;;;;;;4982287;28;20727;-70
2023/01/24 11:24:26;;;;;;;0.00;0.00;;;3.90;83.60;;;;;;4976334;28;20105;-69
2023/01/24 11:27:02;;;;;;;0.00;0.00;;;3.90;83.70;;;;;;4977531;28;20066;-69
2023/01/24 11:29:28;;;;;;;0.10;0.10;;;4.00;83.80;;;;;;4987481;28;20141;-70
2023/01/24 11:31:57;;;;;;;0.00;0.00;;;4.00;83.80;;;;;;4981187;28;20141;-70
2023/01/24 11:34:45;;;;;;;0.08;0.08;;;4.10;83.90;;;;;;4981933;28;20039;-70
2023/01/24 11:37:21;;;;;;;0.05;0.05;;;4.10;83.80;;;;;;4984447;28;20050;-69
2023/01/24 11:40:18;;;;;;;0.00;0.00;;;4.10;83.80;;;;;;4978321;28;20050;-69
2023/01/24 11:43:12;;;;;;;0.00;0.00;;;4.10;83.80;;;;;;4989327;28;20424;-70
2023/01/24 11:46:05;;;;;;;0.00;0.00;;;4.00;83.70;;;;;;4988615;28;20066;-69
2023/01/24 11:48:42;;;;;;;0.00;0.00;;;4.10;83.80;;;;;;4988082;28;20050;-70
2023/01/24 11:51:10;;;;;;;0.00;0.00;;;4.10;83.70;;;;;;4989214;28;20054;-69
2023/01/24 11:53:42;;;;;;;0.20;0.20;;;4.10;83.70;;;;;;4985586;28;20043;-67
2023/01/24 11:56:20;;;;;;;0.00;0.00;;;4.10;83.70;;;;;;4956220;28;20070;-68
2023/01/24 11:59:10;;;;;;;0.00;0.00;;;4.00;83.60;;;;;;5008942;28;20050;-68
2023/01/24 12:01:54;;;;;;;0.00;0.00;;;4.00;83.60;;;;;;4996003;28;20058;-69
2023/01/24 12:04:45;;;;;;;0.00;0.00;;;4.00;83.60;;;;;;5000655;28;20042;-69
2023/01/24 12:07:14;;;;;;;0.00;0.00;;;4.10;83.60;;;;;;4970039;28;20788;-69
2023/01/24 12:10:02;;;;;;;0.00;0.00;;;4.00;83.60;;;;;;4971649;28;20298;-69
2023/01/24 12:12:37;;;;;;;0.00;0.00;;;4.00;83.10;;;;;;4983595;28;20050;-69
2023/01/24 12:15:25;;;;;;;0.00;0.00;;;3.90;83.00;;;;;;4988012;28;20510;-69
2023/01/24 12:18:07;;;;;;;0.00;0.00;;;3.90;83.20;;;;;;4989022;28;20042;-68
2023/01/24 12:20:58;;;;;;;0.00;0.00;;;3.90;83.30;;;;;;4986317;28;20054;-69
2023/01/24 12:23:47;;;;;;;0.15;0.15;;;4.00;83.40;;;;;;4980652;28;20055;-69
2023/01/24 12:26:17;;;;;;;0.00;0.00;;;4.00;83.40;;;;;;4970039;28;20125;-68
2023/01/24 12:29:02;;;;;;;0.00;0.00;;;4.00;83.20;;;;;;4969860;28;20054;-68
2023/01/24 12:31:33;;;;;;;0.40;0.40;;;4.00;83.40;;;;;;4972040;28;20771;-69
2023/01/24 12:34:08;;;;;;;0.03;0.03;;;4.00;83.40;;;;;;4988353;28;20046;-68
2023/01/24 12:36:44;;;;;;;0.00;0.00;;;3.90;83.30;;;;;;4974205;28;20082;-68
2023/01/24 12:39:22;;;;;;;0.00;0.00;;;4.00;83.40;;;;;;4988668;28;20038;-69
2023/01/24 12:41:59;;;;;;;0.00;0.00;;;3.90;83.30;;;;;;4968356;28;20066;-68
2023/01/24 12:44:37;;;;;;;0.00;0.00;;;4.00;83.50;;;;;;4970986;28;20052;-68
2023/01/24 12:47:09;;;;;;;0.00;0.00;;;4.00;83.50;;;;;;4981270;28;20066;-68
2023/01/24 12:50:04;;;;;;;0.03;0.03;;;4.00;83.50;;;;;;4968408;28;20406;-68
2023/01/24 12:52:35;;;;;;;0.00;0.00;;;4.10;83.60;;;;;;4969558;28;20062;-69
2023/01/24 12:55:25;;;;;;;0.10;0.10;;;3.90;83.20;;;;;;4973646;28;20047;-68
2023/01/24 12:58:04;;;;;;;0.00;0.00;;;3.90;83.20;;;;;;4981782;28;20043;-72
2023/01/24 13:00:47;;;;;;;0.20;0.20;;;3.90;83.40;;;;;;4955833;28;20059;-70
2023/01/24 13:03:34;;;;;;;;;;;3.90;83.40;;;;;;4985994;28;20077;-69
2023/01/24 13:06:21;;;;;;;0.05;0.05;;;3.80;83.40;;;;;;4991603;28;19921;-69
2023/01/24 13:08:50;;;;;;;0.00;0.00;;;3.90;83.50;;;;;;4999072;28;20046;-69
2023/01/24 13:11:22;;;;;;;0.10;0.10;;;3.90;83.50;;;;;;4996773;28;20058;-69
2023/01/24 13:13:50;;;;;;;0.00;0.00;;;3.90;83.60;;;;;;4997402;28;20084;-69
2023/01/24 13:16:47;;;;;;;0.00;0.00;;;4.00;83.40;;;;;;4986362;28;20046;-69
2023/01/24 13:19:43;;;;;;;0.00;0.00;;;3.90;83.40;;;;;;4995131;28;20100;-69
2023/01/24 13:22:18;;;;;;;0.15;0.15;;;3.90;83.40;;;;;;4998489;28;20104;-69
2023/01/24 13:25:09;;;;;;;0.00;0.00;;;3.90;83.30;;;;;;4997402;28;20046;-69
2023/01/24 13:27:59;;;;;;;0.10;0.10;;;3.90;83.40;;;;;;4999284;28;20692;-69
2023/01/24 13:30:34;;;;;;;0.00;0.00;;;3.90;83.40;;;;;;4996595;28;20054;-69
2023/01/24 13:33:02;;;;;;;0.00;0.00;;;3.90;83.40;;;;;;4995253;28;20073;-69
2023/01/24 13:35:29;;;;;;;0.00;0.00;;;3.80;83.40;;;;;;4997104;28;20507;-69
2023/01/24 13:38:21;;;;;;;0.10;0.10;;;3.80;83.50;;;;;;4998056;28;20099;-69
2023/01/24 13:41:00;;;;;;;0.00;0.00;;;3.70;83.60;;;;;;4998945;28;20056;-69
2023/01/24 13:43:57;;;;;;;0.00;0.00;;;3.70;83.60;;;;;;4997420;28;20050;-69
2023/01/24 13:46:41;;;;;;;0.00;0.00;;;3.80;83.70;;;;;;5013918;28;20041;-69
2023/01/24 13:49:29;;;;;;;0.00;0.00;;;3.90;83.80;;;;;;4992894;28;20046;-69
2023/01/24 13:51:56;;;;;;;0.00;0.00;;;3.90;83.80;;;;;;4986004;28;20054;-69